Time;durP1;ratioP1;P1;durP2;ratioP2;P2;SDS_P1;SDS_P2;PMS_P1;PMS_P2;Temp;Humidity;BMP_temperature;BMP_pressure;BME280_temperature;BME280_humidity;BME280_pressure;Samples;Min_cycle;Max_cycle;Signal;HPM_P1;HPM_P2
2021/07/08 05:02:37;;;;;;;9.45;8.15;;;;;;;25.36;70.22;95196.91;5154216;23;20062;-75
2021/07/08 05:05:04;;;;;;;8.50;7.63;;;;;;;25.33;69.45;95193.94;5025936;28;20528;-74
2021/07/08 05:07:29;;;;;;;8.05;7.15;;;;;;;26.20;67.49;95194.91;5026380;28;20164;-75
2021/07/08 05:09:55;;;;;;;8.52;7.72;;;;;;;25.57;68.45;95195.97;5028470;28;20025;-75
2021/07/08 05:12:20;;;;;;;8.57;7.95;;;;;;;27.93;63.50;95208.94;5008078;28;20028;-75
2021/07/08 05:14:46;;;;;;;8.23;7.53;;;;;;;28.09;62.75;95202.50;4994731;28;20037;-75
2021/07/08 05:17:12;;;;;;;9.20;8.45;;;;;;;29.88;56.81;95202.44;5009508;28;20053;-74
2021/07/08 05:19:37;;;;;;;9.95;8.82;;;;;;;29.15;56.92;95205.28;5027404;28;20026;-74
2021/07/08 05:22:03;;;;;;;9.95;8.82;;;;;;;29.76;55.19;95200.13;5025569;28;20056;-75
2021/07/08 05:24:29;;;;;;;9.02;8.15;;;;;;;28.51;58.94;95204.69;5010923;28;20026;-76
2021/07/08 05:26:54;;;;;;;8.90;8.00;;;;;;;28.43;59.15;95208.72;4993833;28;20026;-75
2021/07/08 05:29:22;;;;;;;9.00;8.40;;;;;;;30.64;53.12;95209.47;4993698;28;20034;-75
2021/07/08 05:31:48;;;;;;;9.45;8.70;;;;;;;30.66;53.58;95202.78;5010626;28;20037;-75
2021/07/08 05:34:13;;;;;;;9.88;8.93;;;;;;;33.23;47.88;95212.25;5009571;28;20030;-75
2021/07/08 05:36:39;;;;;;;14.27;8.85;;;;;;;32.53;48.97;95218.13;5027093;28;20446;-75
2021/07/08 05:39:05;;;;;;;10.05;7.13;;;;;;;32.37;48.87;95224.91;5026005;28;20030;-75
2021/07/08 05:41:31;;;;;;;8.65;7.90;;;;;;;31.62;50.00;95222.66;5028063;28;20039;-75
2021/07/08 05:43:56;;;;;;;8.15;7.65;;;;;;;33.09;48.15;95231.13;5009859;28;20025;-75
2021/07/08 05:46:22;;;;;;;7.35;6.90;;;;;;;34.28;44.99;95232.06;5013018;28;20033;-75
2021/07/08 05:48:48;;;;;;;5.95;5.43;;;;;;;34.30;44.56;95230.63;4997696;28;20107;-74
2021/07/08 05:51:13;;;;;;;6.55;6.05;;;;;;;33.79;45.32;95225.06;5012978;28;20088;-74
2021/07/08 05:53:39;;;;;;;7.30;6.78;;;;;;;33.21;47.97;95231.34;5014192;28;20029;-75
2021/07/08 05:56:06;;;;;;;6.85;6.20;;;;;;;34.20;45.84;95232.81;5030692;28;20064;-75
2021/07/08 05:58:32;;;;;;;6.88;6.47;;;;;;;34.34;44.80;95233.50;5030129;28;20034;-75
2021/07/08 06:00:57;;;;;;;8.27;6.88;;;;;;;33.87;46.06;95237.75;5029064;28;20538;-75
2021/07/08 06:03:23;;;;;;;6.40;5.90;;;;;;;33.98;46.46;95235.56;5013909;28;20561;-74
2021/07/08 06:05:49;;;;;;;6.63;5.80;;;;;;;34.16;44.85;95231.88;5029796;28;20037;-75
2021/07/08 06:08:15;;;;;;;7.07;6.38;;;;;;;30.32;52.14;95229.69;5007625;28;20495;-77
2021/07/08 06:10:43;;;;;;;12.90;7.63;;;;;;;29.28;55.95;95226.00;4993896;28;20044;-76
2021/07/08 06:13:12;;;;;;;6.90;6.40;;;;;;;32.35;50.01;95227.13;4977134;28;20048;-75
2021/07/08 06:15:37;;;;;;;7.50;7.00;;;;;;;31.07;50.48;95235.09;5009771;28;20026;-76
2021/07/08 06:18:03;;;;;;;7.57;7.07;;;;;;;31.76;49.57;95223.44;4992145;28;20104;-75
2021/07/08 06:20:29;;;;;;;10.15;7.32;;;;;;;33.78;46.82;95229.63;5009786;28;20065;-75
2021/07/08 06:22:55;;;;;;;7.50;6.75;;;;;;;35.49;43.14;95233.69;5009571;28;20107;-75
2021/07/08 06:25:22;;;;;;;7.05;6.63;;;;;;;35.44;43.45;95231.19;4976945;28;20032;-75
2021/07/08 06:27:48;;;;;;;7.00;6.40;;;;;;;35.66;43.19;95233.69;4977888;28;20050;-74
2021/07/08 06:30:14;;;;;;;6.57;5.97;;;;;;;36.81;41.36;95232.47;5009319;28;20026;-75
2021/07/08 06:32:39;;;;;;;7.38;6.72;;;;;;;36.37;41.80;95226.56;5009533;28;20021;-75
2021/07/08 06:35:07;;;;;;;7.03;6.43;;;;;;;35.02;43.81;95232.78;5009397;28;20502;-75
2021/07/08 06:37:33;;;;;;;6.72;6.32;;;;;;;35.20;43.09;95230.88;4993425;28;20025;-75
2021/07/08 06:39:58;;;;;;;9.57;5.78;;;;;;;35.47;43.84;95229.75;4992760;28;20088;-75
2021/07/08 06:42:24;;;;;;;6.28;5.65;;;;;;;35.67;43.54;95226.38;4991787;28;20026;-75
2021/07/08 06:44:49;;;;;;;6.53;5.95;;;;;;;29.47;55.99;95236.78;4993288;28;20030;-76
2021/07/08 06:47:17;;;;;;;6.53;5.93;;;;;;;30.30;53.64;95231.06;5023942;28;20045;-77
2021/07/08 06:49:44;;;;;;;6.80;6.13;;;;;;;30.02;55.46;95239.97;4976354;28;20053;-75
2021/07/08 06:52:10;;;;;;;6.80;6.07;;;;;;;30.30;54.34;95233.75;5006681;28;20458;-76
2021/07/08 06:54:35;;;;;;;5.47;4.88;;;;;;;31.82;51.25;95232.97;5006739;28;20026;-75
2021/07/08 06:57:00;;;;;;;6.47;4.90;;;;;;;33.70;47.30;95219.66;5007321;28;20411;-74
2021/07/08 06:59:26;;;;;;;5.55;5.05;;;;;;;36.76;41.67;95229.97;4989885;28;20403;-75
2021/07/08 07:01:51;;;;;;;5.13;4.75;;;;;;;37.07;38.51;95221.47;4988733;28;20054;-75
2021/07/08 07:04:17;;;;;;;9.93;5.22;;;;;;;35.23;41.38;95224.84;4971735;28;20030;-76
2021/07/08 07:06:42;;;;;;;6.25;5.68;;;;;;;33.56;46.05;95223.50;4977251;28;20041;-77
2021/07/08 07:09:08;;;;;;;5.68;5.28;;;;;;;31.06;51.44;95224.66;4973936;28;20036;-76
2021/07/08 07:11:33;;;;;;;6.25;5.82;;;;;;;29.65;57.34;95229.91;4991382;28;20506;-77
2021/07/08 07:13:59;;;;;;;5.85;5.35;;;;;;;31.13;54.25;95217.84;4990786;28;20033;-75
2021/07/08 07:16:24;;;;;;;5.63;5.18;;;;;;;30.94;53.33;95198.31;4988084;28;20118;-79
2021/07/08 07:18:50;;;;;;;5.10;4.70;;;;;;;30.82;53.37;95228.19;4955462;28;20034;-75
2021/07/08 07:21:15;;;;;;;5.57;5.07;;;;;;;30.96;54.80;95227.47;4971596;28;20030;-76
2021/07/08 07:23:43;;;;;;;9.30;5.65;;;;;;;29.53;57.30;95227.66;4987711;28;20023;-75
2021/07/08 07:26:10;;;;;;;8.32;5.10;;;;;;;30.37;53.23;95209.31;4971246;28;20041;-77
2021/07/08 07:28:36;;;;;;;5.82;5.32;;;;;;;30.73;54.80;95224.59;4971857;28;20577;-74
2021/07/08 07:31:01;;;;;;;7.40;5.40;;;;;;;31.91;51.24;95224.25;4991173;28;20105;-75
2021/07/08 07:33:27;;;;;;;7.47;5.13;;;;;;;31.03;55.09;95219.88;5008997;28;20042;-74
2021/07/08 07:35:52;;;;;;;5.38;4.85;;;;;;;31.09;50.29;95214.16;5006720;28;20037;-75
2021/07/08 07:38:18;;;;;;;5.45;5.05;;;;;;;31.31;52.73;95219.66;4991074;28;20037;-75
2021/07/08 07:40:44;;;;;;;5.18;4.68;;;;;;;31.86;49.92;95207.16;5006962;28;20030;-76
2021/07/08 07:43:10;;;;;;;5.63;5.20;;;;;;;31.83;51.33;95210.44;4988669;28;20084;-75
2021/07/08 07:45:35;;;;;;;5.65;4.40;;;;;;;32.20;49.24;95204.09;4989067;28;20037;-75
2021/07/08 07:48:01;;;;;;;5.35;4.95;;;;;;;30.77;51.38;95209.53;4990050;28;20036;-76
2021/07/08 07:50:30;;;;;;;9.13;5.72;;;;;;;30.19;52.33;95218.91;4991086;28;20030;-75
2021/07/08 07:52:56;;;;;;;5.90;4.93;;;;;;;30.26;53.54;95220.16;4974750;28;20491;-76
2021/07/08 07:55:26;;;;;;;5.75;5.18;;;;;;;31.43;52.58;95216.53;4990981;28;20072;-75
2021/07/08 07:57:52;;;;;;;8.65;5.40;;;;;;;31.45;51.80;95213.53;4991089;28;20028;-76
2021/07/08 08:00:17;;;;;;;6.00;5.30;;;;;;;31.51;50.33;95215.06;5006497;28;20411;-75
2021/07/08 08:02:43;;;;;;;5.95;5.55;;;;;;;29.34;54.69;95208.06;4990077;28;20814;-77
2021/07/08 08:10:23;;;;;;;6.00;5.10;;;;;;;30.81;51.38;95210.56;5007890;28;20056;-76
2021/07/08 08:12:48;;;;;;;5.72;5.25;;;;;;;32.01;50.82;95208.75;4990049;28;20518;-75
2021/07/08 08:15:15;;;;;;;5.43;4.93;;;;;;;32.04;49.45;95210.88;5006693;28;20036;-75
2021/07/08 08:17:41;;;;;;;6.88;5.40;;;;;;;32.07;48.69;95206.78;4989781;28;20036;-76
2021/07/08 08:20:07;;;;;;;6.30;5.80;;;;;;;30.80;50.36;95208.16;5007179;28;20026;-75
2021/07/08 08:22:32;;;;;;;6.68;6.18;;;;;;;31.04;51.05;95210.78;4989350;28;20497;-75
2021/07/08 08:24:58;;;;;;;6.18;5.57;;;;;;;32.24;48.57;95209.63;4990503;28;20030;-76
2021/07/08 08:27:23;;;;;;;6.55;5.95;;;;;;;31.53;50.05;95204.88;4989754;28;20547;-76
2021/07/08 08:29:49;;;;;;;11.35;6.47;;;;;;;30.87;52.29;95210.47;5006487;28;20032;-75
2021/07/08 08:32:14;;;;;;;6.53;5.93;;;;;;;31.00;51.94;95210.56;4988621;28;20033;-75
2021/07/08 08:34:40;;;;;;;6.78;6.28;;;;;;;31.31;51.36;95216.19;4969307;28;20034;-75
2021/07/08 08:37:08;;;;;;;9.68;5.90;;;;;;;30.76;53.59;95207.94;4988038;28;20061;-77
2021/07/08 08:39:33;;;;;;;6.22;5.43;;;;;;;31.59;52.29;95203.69;4973294;28;20026;-75
2021/07/08 08:41:59;;;;;;;5.80;5.38;;;;;;;31.23;51.84;95204.28;4990149;28;20052;-75
2021/07/08 08:44:24;;;;;;;10.10;5.53;;;;;;;31.04;53.17;95208.09;5005844;28;20070;-75
2021/07/08 08:46:50;;;;;;;6.65;6.05;;;;;;;31.01;53.76;95206.00;5006302;28;20034;-75
2021/07/08 08:49:16;;;;;;;7.93;6.38;;;;;;;30.19;54.21;95202.84;5006142;28;20028;-76
2021/07/08 08:51:42;;;;;;;7.20;6.40;;;;;;;30.05;55.08;95212.66;5005802;28;20037;-75
2021/07/08 08:54:08;;;;;;;8.52;6.35;;;;;;;29.30;54.52;95193.69;4974139;28;20030;-75
2021/07/08 08:56:33;;;;;;;6.50;6.00;;;;;;;29.72;54.55;95204.47;4989371;28;20090;-76
2021/07/08 08:58:59;;;;;;;7.00;6.32;;;;;;;30.00;53.14;95199.34;4990147;28;20075;-75
2021/07/08 09:01:24;;;;;;;7.30;6.07;;;;;;;31.37;54.03;95196.25;4988892;28;20042;-75
2021/07/08 09:03:50;;;;;;;6.30;5.80;;;;;;;30.31;54.96;95200.56;4989815;28;20042;-74
2021/07/08 09:06:16;;;;;;;7.28;6.10;;;;;;;30.05;54.77;95207.31;4988413;28;20076;-75
2021/07/08 09:08:45;;;;;;;7.07;6.45;;;;;;;30.79;53.48;95199.34;4989033;28;20030;-75
2021/07/08 09:11:18;;;;;;;6.53;6.00;;;;;;;30.42;53.20;95196.69;5007298;28;20030;-75
2021/07/08 09:13:44;;;;;;;6.22;5.72;;;;;;;31.47;52.56;95200.66;5005998;28;20030;-75
2021/07/08 09:16:13;;;;;;;8.57;7.88;;;;;;;30.96;50.97;95204.19;5005559;28;20026;-76
2021/07/08 09:18:38;;;;;;;;;;;;;;;31.02;49.92;95207.59;4990057;28;20400;-75
2021/07/08 09:21:17;;;;;;;6.68;6.03;;;;;;;30.67;50.40;95198.19;5009795;28;19920;-75
2021/07/08 09:24:19;;;;;;;7.45;6.70;;;;;;;30.71;51.23;95208.03;4993227;28;20037;-75
2021/07/08 09:26:55;;;;;;;6.90;6.20;;;;;;;30.69;51.05;95206.75;5009422;28;20432;-75
2021/07/08 09:29:25;;;;;;;6.15;5.72;;;;;;;30.58;51.26;95198.06;5010221;28;20084;-77
2021/07/08 09:32:18;;;;;;;8.18;5.80;;;;;;;30.76;49.56;95202.59;4992801;28;20084;-75
2021/07/08 09:34:53;;;;;;;7.60;6.68;;;;;;;31.05;51.80;95204.34;5006364;28;20045;-75
2021/07/08 09:37:37;;;;;;;9.20;6.63;;;;;;;30.12;51.23;95181.03;4993328;28;20087;-77
2021/07/08 09:40:04;;;;;;;6.63;6.07;;;;;;;30.46;50.33;95191.56;4992060;28;20037;-76
2021/07/08 09:42:45;;;;;;;6.70;6.22;;;;;;;30.56;51.77;95194.91;5009657;28;20056;-77
2021/07/08 09:45:12;;;;;;;7.00;6.40;;;;;;;30.75;50.82;95201.03;4976394;28;20028;-75
2021/07/08 09:47:39;;;;;;;6.38;5.90;;;;;;;31.02;49.49;95194.22;5010625;28;20058;-75
2021/07/08 09:50:33;;;;;;;6.82;6.43;;;;;;;30.51;50.78;95197.63;4975785;28;20041;-76
2021/07/08 09:53:05;;;;;;;6.75;6.13;;;;;;;30.14;51.13;95206.41;5006361;28;20022;-75
2021/07/08 09:56:07;;;;;;;7.05;6.43;;;;;;;29.93;51.48;95194.34;5008490;28;20392;-77
2021/07/08 09:58:33;;;;;;;6.60;6.10;;;;;;;30.68;51.96;95199.78;4994629;28;20623;-75
2021/07/08 10:01:13;;;;;;;6.40;5.80;;;;;;;31.09;52.02;95199.97;4990288;28;20499;-75
2021/07/08 10:03:44;;;;;;;6.45;5.90;;;;;;;30.60;51.92;95193.22;5005432;28;20493;-75
2021/07/08 10:06:09;;;;;;;7.47;6.05;;;;;;;30.11;52.58;95211.53;4990008;28;20030;-75
2021/07/08 10:08:36;;;;;;;6.90;6.30;;;;;;;30.61;52.03;95202.84;4990454;28;20439;-76
2021/07/08 10:11:01;;;;;;;6.65;5.97;;;;;;;30.33;51.83;95198.41;4989727;28;20064;-76
2021/07/08 10:13:27;;;;;;;6.15;5.65;;;;;;;30.43;51.24;95200.97;5006174;28;20038;-75
2021/07/08 10:15:52;;;;;;;6.63;5.97;;;;;;;30.77;49.98;95185.47;4990600;28;20026;-76
2021/07/08 10:18:18;;;;;;;7.85;6.20;;;;;;;30.49;50.75;95207.03;4988772;28;20026;-76
2021/07/08 10:20:45;;;;;;;6.70;6.20;;;;;;;30.37;49.83;95206.63;4991175;28;20030;-77
2021/07/08 10:23:11;;;;;;;6.25;5.63;;;;;;;30.98;49.44;95198.56;5006328;28;20161;-74
2021/07/08 10:25:37;;;;;;;6.32;5.82;;;;;;;30.56;50.21;95207.47;4990452;28;20026;-75
2021/07/08 10:28:02;;;;;;;7.70;5.85;;;;;;;31.02;50.07;95205.69;5006336;28;20033;-75
2021/07/08 10:30:28;;;;;;;6.28;5.68;;;;;;;30.68;51.65;95200.59;5006690;28;20072;-75
2021/07/08 10:32:57;;;;;;;6.95;5.97;;;;;;;30.51;50.05;95204.84;5006932;28;20088;-75
2021/07/08 10:35:43;;;;;;;7.82;6.00;;;;;;;31.29;49.73;95199.63;4988620;28;20040;-75
2021/07/08 10:38:27;;;;;;;7.65;6.18;;;;;;;30.60;48.28;95200.47;5005963;28;20080;-75
2021/07/08 10:40:56;;;;;;;5.88;5.28;;;;;;;30.62;47.49;95196.41;5000555;28;20034;-75
2021/07/08 10:43:41;;;;;;;5.68;5.32;;;;;;;30.99;47.48;95182.19;5006321;28;20522;-75
2021/07/08 10:46:08;;;;;;;6.15;5.55;;;;;;;31.27;49.23;95188.44;5002877;28;20553;-75
2021/07/08 10:48:46;;;;;;;6.32;5.82;;;;;;;31.27;48.56;95169.69;4975305;28;20045;-75
2021/07/08 10:51:25;;;;;;;7.13;6.47;;;;;;;31.06;50.39;95195.19;4974536;28;20033;-75
2021/07/08 10:53:51;;;;;;;;;;;;;;;30.94;49.37;95186.81;5002914;28;20042;-75
2021/07/08 10:56:22;;;;;;;6.47;5.97;;;;;;;30.97;49.35;95191.59;5007038;28;19913;-75
2021/07/08 10:58:51;;;;;;;6.35;5.85;;;;;;;31.15;46.86;95172.00;5006951;28;20017;-76
2021/07/08 11:01:26;;;;;;;6.55;5.50;;;;;;;30.52;46.69;95190.41;5005710;28;20042;-75
2021/07/08 11:04:02;;;;;;;6.38;5.97;;;;;;;30.82;46.92;95171.22;5008417;28;20042;-77
2021/07/08 11:06:29;;;;;;;6.63;5.70;;;;;;;31.19;47.99;95178.38;5006014;28;20041;-76
2021/07/08 11:09:16;;;;;;;6.20;5.75;;;;;;;31.18;49.72;95180.25;4990759;28;20487;-77
2021/07/08 11:11:42;;;;;;;7.05;6.40;;;;;;;30.31;48.88;95185.31;5007560;28;20053;-75
2021/07/08 11:14:07;;;;;;;6.10;5.70;;;;;;;30.86;49.81;95198.19;5006296;28;20068;-75
2021/07/08 11:16:46;;;;;;;6.57;6.07;;;;;;;30.77;51.11;95179.31;5007408;28;20032;-77
2021/07/08 11:19:21;;;;;;;6.22;5.63;;;;;;;30.82;49.34;95176.56;5005844;28;20588;-78
2021/07/08 11:22:04;;;;;;;5.85;5.10;;;;;;;31.09;47.75;95170.53;5022942;28;20029;-77
2021/07/08 11:24:51;;;;;;;6.03;5.63;;;;;;;31.09;48.71;95179.34;4985536;28;20034;-75
2021/07/08 11:27:23;;;;;;;6.85;6.13;;;;;;;31.22;47.44;95175.13;5006703;28;20038;-77
2021/07/08 11:29:53;;;;;;;7.00;5.55;;;;;;;31.26;48.66;95173.44;5007939;28;20037;-76
2021/07/08 11:32:29;;;;;;;5.18;4.78;;;;;;;30.89;48.97;95168.94;4989683;28;20281;-76
2021/07/08 11:35:29;;;;;;;5.65;5.28;;;;;;;30.68;49.83;95173.84;4989341;28;20026;-75
2021/07/08 11:37:56;;;;;;;6.35;5.85;;;;;;;30.63;49.13;95165.88;4992780;28;20037;-77
2021/07/08 11:40:22;;;;;;;6.60;6.00;;;;;;;30.79;51.38;95167.22;4986020;28;20154;-78
2021/07/08 11:42:48;;;;;;;6.45;5.75;;;;;;;30.96;47.76;95168.59;4985552;28;20026;-75
2021/07/08 11:45:24;;;;;;;5.88;5.38;;;;;;;31.24;48.72;95176.41;4986286;28;20134;-75
2021/07/08 11:47:53;;;;;;;5.95;5.55;;;;;;;30.79;48.45;95172.56;4976013;28;20060;-75
2021/07/08 11:50:32;;;;;;;6.13;5.63;;;;;;;30.58;48.29;95170.50;4995714;28;20077;-76
2021/07/08 11:53:07;;;;;;;11.20;5.95;;;;;;;30.64;48.96;95172.03;4989368;28;20514;-76
2021/07/08 11:55:33;;;;;;;6.68;6.07;;;;;;;31.02;47.83;95170.13;5006015;28;20030;-76
2021/07/08 11:57:59;;;;;;;6.97;6.32;;;;;;;30.72;48.16;95168.69;4988882;28;20026;-76
2021/07/08 12:00:36;;;;;;;6.50;5.90;;;;;;;31.30;48.68;95166.41;5004467;28;20128;-74
2021/07/08 12:03:02;;;;;;;7.22;6.60;;;;;;;31.12;49.02;95146.63;5004775;28;20060;-75
2021/07/08 12:05:28;;;;;;;6.90;6.30;;;;;;;30.69;50.96;95154.03;5003103;28;20041;-76
2021/07/08 12:08:05;;;;;;;8.25;6.80;;;;;;;30.33;51.92;95155.63;4972112;28;20038;-75
2021/07/08 12:10:32;;;;;;;7.18;6.53;;;;;;;29.34;51.69;95145.88;4974442;28;20032;-77
2021/07/08 12:12:58;;;;;;;6.20;5.80;;;;;;;29.50;51.63;95161.44;4986402;28;20058;-77
2021/07/08 12:15:26;;;;;;;7.97;6.72;;;;;;;29.96;49.16;95171.63;4987713;28;20030;-75
2021/07/08 12:17:56;;;;;;;6.75;6.18;;;;;;;30.22;49.95;95164.84;4989194;28;20091;-75
2021/07/08 12:20:21;;;;;;;6.97;6.47;;;;;;;29.61;49.40;95170.13;4984183;28;20129;-73
2021/07/08 12:22:57;;;;;;;7.80;6.03;;;;;;;29.60;49.67;95166.69;4977986;28;20022;-75
2021/07/08 12:25:23;;;;;;;6.75;6.10;;;;;;;30.19;48.35;95166.22;4988786;28;20030;-74
2021/07/08 12:27:49;;;;;;;6.70;6.20;;;;;;;30.34;50.59;95168.69;5004354;28;20037;-75
2021/07/08 12:30:23;;;;;;;6.40;5.78;;;;;;;30.79;50.14;95164.53;5004950;28;20022;-73
2021/07/08 12:32:49;;;;;;;6.65;5.93;;;;;;;30.87;50.34;95160.41;5003174;28;20657;-75
2021/07/08 12:35:15;;;;;;;7.32;6.63;;;;;;;29.84;50.43;95160.53;4988366;28;20415;-75
2021/07/08 12:37:41;;;;;;;7.22;6.80;;;;;;;29.00;52.34;95159.25;4987451;28;20205;-75
2021/07/08 12:40:14;;;;;;;7.35;6.63;;;;;;;28.90;51.22;95164.69;4988793;28;20022;-75
2021/07/08 12:42:44;;;;;;;6.50;5.93;;;;;;;30.03;50.74;95169.38;5003971;28;20232;-74
2021/07/08 12:45:14;;;;;;;6.82;6.28;;;;;;;30.06;50.18;95166.94;4988234;28;20030;-74
2021/07/08 12:48:01;;;;;;;7.10;6.22;;;;;;;30.07;50.40;95165.06;4988022;28;20498;-75
2021/07/08 12:50:28;;;;;;;6.35;5.95;;;;;;;30.46;51.67;95162.94;4985596;28;20416;-76
2021/07/08 12:52:55;;;;;;;6.13;5.72;;;;;;;30.12;50.12;95154.28;4984663;28;20036;-79
2021/07/08 12:55:37;;;;;;;6.85;6.18;;;;;;;30.19;49.04;95168.91;4988781;28;20055;-79
2021/07/08 12:58:07;;;;;;;6.47;5.88;;;;;;;30.01;49.67;95155.53;4988222;28;20121;-77
2021/07/08 13:00:33;;;;;;;7.95;6.45;;;;;;;30.23;50.26;95161.09;4974631;28;20062;-78
2021/07/08 13:02:58;;;;;;;6.00;5.45;;;;;;;30.09;48.47;95154.88;5007815;28;20492;-76
2021/07/08 13:05:33;;;;;;;6.03;5.63;;;;;;;29.83;49.67;95162.41;4975423;28;20037;-78
2021/07/08 13:07:58;;;;;;;8.32;5.88;;;;;;;30.40;50.54;95150.72;4991631;28;20450;-77
2021/07/08 13:10:32;;;;;;;6.80;6.10;;;;;;;30.22;49.11;95143.47;5008489;28;20026;-76
2021/07/08 13:12:59;;;;;;;6.03;5.57;;;;;;;30.32;50.13;95151.34;4991494;28;20057;-76
2021/07/08 13:15:24;;;;;;;6.50;6.00;;;;;;;30.07;49.41;95146.34;5007542;28;20491;-76
2021/07/08 13:18:07;;;;;;;5.80;5.30;;;;;;;30.31;50.48;95145.19;5006635;28;20029;-74
2021/07/08 13:20:34;;;;;;;5.68;5.18;;;;;;;30.36;50.64;95147.00;5007722;28;20375;-75
2021/07/08 13:23:15;;;;;;;6.15;5.63;;;;;;;30.31;50.10;95142.53;5005373;28;20042;-75
2021/07/08 13:25:40;;;;;;;5.78;5.28;;;;;;;30.39;50.55;95143.75;5009112;28;20202;-75
2021/07/08 13:28:28;;;;;;;5.80;5.30;;;;;;;30.40;51.41;95139.22;4990805;28;20026;-75
2021/07/08 13:31:09;;;;;;;6.13;5.53;;;;;;;30.36;50.72;95135.50;5007942;28;20018;-76
2021/07/08 13:33:41;;;;;;;6.10;5.60;;;;;;;30.14;50.51;95142.25;5007024;28;20442;-75
2021/07/08 13:36:14;;;;;;;5.22;4.80;;;;;;;30.41;48.52;95141.59;5009598;28;20137;-75
2021/07/08 13:38:42;;;;;;;8.07;5.15;;;;;;;30.32;48.49;95125.41;4991050;28;20408;-75
2021/07/08 13:41:27;;;;;;;5.25;4.80;;;;;;;30.40;49.61;95140.03;4984703;28;20038;-75
2021/07/08 13:44:03;;;;;;;4.95;4.65;;;;;;;30.47;49.56;95135.09;4985763;28;20499;-74
2021/07/08 13:46:41;;;;;;;5.35;4.93;;;;;;;30.08;48.43;95134.59;5004113;28;20045;-74
2021/07/08 13:49:16;;;;;;;4.70;4.40;;;;;;;30.37;47.58;95135.25;5004357;28;20030;-75
2021/07/08 13:51:55;;;;;;;5.85;4.75;;;;;;;30.19;47.26;95136.81;5001658;28;20395;-75
2021/07/08 13:54:24;;;;;;;5.20;4.90;;;;;;;30.19;48.02;95131.47;5003405;28;20053;-74
2021/07/08 13:56:50;;;;;;;8.75;4.90;;;;;;;30.51;48.59;95141.47;4990024;28;20971;-74
2021/07/08 13:59:16;;;;;;;5.57;5.03;;;;;;;30.02;49.20;95141.09;4987622;28;20407;-75
2021/07/08 14:01:41;;;;;;;4.93;4.53;;;;;;;30.22;49.75;95146.94;5007161;28;20046;-78
2021/07/08 14:04:07;;;;;;;5.30;4.85;;;;;;;30.06;50.37;95144.75;5006607;28;20022;-74
2021/07/08 14:06:33;;;;;;;5.07;4.72;;;;;;;29.81;48.41;95140.50;4989678;28;20042;-77
2021/07/08 14:08:59;;;;;;;6.85;5.07;;;;;;;29.96;48.77;95148.34;4990457;28;20037;-75
2021/07/08 14:11:25;;;;;;;6.35;4.88;;;;;;;30.18;50.74;95143.25;4990456;28;20033;-75
2021/07/08 14:13:54;;;;;;;5.32;4.93;;;;;;;30.11;49.21;95142.03;4990188;28;20527;-75
2021/07/08 14:16:20;;;;;;;5.07;4.68;;;;;;;30.24;50.96;95136.75;4990960;28;20861;-76
2021/07/08 14:18:45;;;;;;;4.88;4.57;;;;;;;29.98;50.27;95118.69;5004055;28;20025;-76
2021/07/08 14:21:11;;;;;;;6.15;5.60;;;;;;;29.69;50.68;95138.25;4990254;28;20022;-74
2021/07/08 14:23:36;;;;;;;5.82;4.97;;;;;;;29.81;50.14;95132.50;4989507;28;20045;-75
2021/07/08 14:26:02;;;;;;;5.47;5.05;;;;;;;29.87;51.97;95141.25;5007870;28;20017;-74
2021/07/08 14:28:28;;;;;;;6.15;5.65;;;;;;;29.51;52.20;95143.56;5007861;28;20033;-75
2021/07/08 14:30:55;;;;;;;5.47;5.05;;;;;;;29.66;51.27;95141.50;5006358;28;20026;-75
2021/07/08 14:33:21;;;;;;;6.50;4.88;;;;;;;29.59;51.75;95141.03;5006484;28;20030;-74
2021/07/08 14:35:46;;;;;;;5.47;4.95;;;;;;;29.51;51.48;95138.22;4990270;28;20479;-76
2021/07/08 14:38:12;;;;;;;5.35;4.95;;;;;;;29.72;51.21;95140.34;4973636;28;20034;-75
2021/07/08 14:40:37;;;;;;;5.20;4.90;;;;;;;29.73;51.92;95141.94;4970769;28;20041;-75
2021/07/08 14:43:06;;;;;;;5.93;5.43;;;;;;;29.58;51.86;95134.09;4969886;28;20057;-76
2021/07/08 14:45:32;;;;;;;5.30;4.80;;;;;;;29.46;51.67;95136.38;4975638;28;20064;-75
2021/07/08 14:47:58;;;;;;;6.30;5.05;;;;;;;29.49;52.33;95137.69;4989240;28;20100;-77
2021/07/08 14:50:24;;;;;;;6.28;5.57;;;;;;;29.43;51.86;95136.97;4989679;28;20021;-75
2021/07/08 14:52:49;;;;;;;5.15;4.75;;;;;;;29.56;52.07;95135.47;4989329;28;20064;-74
2021/07/08 14:55:14;;;;;;;5.35;4.93;;;;;;;29.51;52.44;95133.66;5006256;28;20100;-75
2021/07/08 14:57:40;;;;;;;6.18;4.68;;;;;;;29.50;52.03;95140.09;4972645;28;20030;-74
2021/07/08 15:00:06;;;;;;;5.32;4.82;;;;;;;29.48;52.14;95138.75;5004663;28;20029;-75
2021/07/08 15:02:32;;;;;;;5.65;5.10;;;;;;;29.28;51.91;95140.56;4988822;28;20045;-74
2021/07/08 15:04:57;;;;;;;5.15;4.80;;;;;;;29.35;51.62;95139.47;4990152;28;20080;-73
2021/07/08 15:07:23;;;;;;;5.10;4.63;;;;;;;29.30;51.96;95134.97;5005709;28;20499;-74
2021/07/08 15:09:48;;;;;;;5.25;4.93;;;;;;;29.18;51.02;95140.66;4989660;28;20026;-72
2021/07/08 15:12:16;;;;;;;5.05;4.55;;;;;;;29.31;51.09;95144.56;5005112;28;20099;-73
2021/07/08 15:14:42;;;;;;;5.80;5.40;;;;;;;29.31;51.55;95143.78;4990176;28;20030;-73
2021/07/08 15:17:09;;;;;;;5.15;4.75;;;;;;;29.48;52.12;95154.78;4978629;28;20018;-73
2021/07/08 15:19:35;;;;;;;5.70;5.00;;;;;;;29.34;52.54;95151.22;4986646;28;20026;-72
2021/07/08 15:22:01;;;;;;;5.38;4.93;;;;;;;29.38;53.61;95150.34;4968922;28;20080;-74
2021/07/08 15:24:26;;;;;;;6.07;5.50;;;;;;;29.11;53.52;95161.56;4970298;28;20121;-73
2021/07/08 15:26:52;;;;;;;6.03;5.63;;;;;;;29.05;53.66;95146.66;4953689;28;20038;-74
2021/07/08 15:29:17;;;;;;;5.63;5.18;;;;;;;28.90;54.11;95144.13;4969899;28;20026;-73
2021/07/08 15:31:43;;;;;;;5.93;5.32;;;;;;;28.96;54.28;95144.88;4985730;28;20033;-74
2021/07/08 15:34:09;;;;;;;5.93;5.40;;;;;;;28.71;53.76;95119.22;4986707;28;20037;-73
2021/07/08 15:36:35;;;;;;;4.68;4.38;;;;;;;28.89;54.35;95145.22;4970305;28;20026;-73
2021/07/08 15:39:01;;;;;;;6.13;5.50;;;;;;;28.76;53.55;95149.31;4985206;28;20781;-75
2021/07/08 15:41:28;;;;;;;5.75;5.35;;;;;;;28.82;54.52;95143.94;4978037;28;20061;-74
2021/07/08 15:43:54;;;;;;;5.20;4.80;;;;;;;28.76;55.96;95138.66;4964428;28;20041;-75
2021/07/08 15:46:19;;;;;;;5.57;5.18;;;;;;;28.65;56.37;95149.63;4969586;28;20034;-73
2021/07/08 15:48:46;;;;;;;5.82;5.32;;;;;;;28.57;55.67;95158.25;4969946;28;20022;-73
2021/07/08 15:51:11;;;;;;;5.82;5.43;;;;;;;28.67;55.88;95155.53;4985027;28;20432;-72
2021/07/08 15:53:38;;;;;;;5.75;5.18;;;;;;;28.71;55.83;95157.34;4975519;28;20026;-72
2021/07/08 15:56:03;;;;;;;5.55;5.13;;;;;;;28.59;55.42;95153.41;5000854;28;20412;-72
2021/07/08 15:58:30;;;;;;;5.93;5.53;;;;;;;28.37;56.22;95155.72;4987514;28;20030;-73
2021/07/08 16:00:55;;;;;;;6.40;5.95;;;;;;;28.27;55.67;95156.56;5004113;28;20454;-73
2021/07/08 16:03:21;;;;;;;5.65;5.25;;;;;;;28.19;56.74;95163.28;4982730;28;20706;-72
2021/07/08 16:05:47;;;;;;;7.72;5.57;;;;;;;28.10;56.94;95164.13;5003323;28;20038;-73
2021/07/08 16:08:12;;;;;;;6.15;5.68;;;;;;;28.00;56.84;95151.63;5004834;28;20022;-81
2021/07/08 16:10:38;;;;;;;6.57;6.05;;;;;;;27.94;57.77;95162.56;4986741;28;20419;-73
2021/07/08 16:13:03;;;;;;;6.68;5.70;;;;;;;27.90;57.78;95153.56;5003006;28;20029;-72
2021/07/08 16:15:30;;;;;;;7.20;6.38;;;;;;;27.88;58.66;95161.00;5004916;28;20088;-72
2021/07/08 16:17:56;;;;;;;6.70;6.10;;;;;;;27.77;58.29;95151.50;5003201;28;20026;-72
2021/07/08 16:20:21;;;;;;;6.32;5.82;;;;;;;27.73;58.22;95157.38;5003420;28;20407;-75
2021/07/08 16:22:46;;;;;;;6.72;6.03;;;;;;;27.66;58.68;95148.88;4991792;28;20540;-73
2021/07/08 16:25:12;;;;;;;6.22;5.60;;;;;;;27.53;59.55;95148.63;4968459;28;20026;-71
2021/07/08 16:27:38;;;;;;;5.72;5.22;;;;;;;27.53;58.37;95152.09;4998749;28;20036;-73
2021/07/08 16:30:08;;;;;;;6.63;6.13;;;;;;;27.53;58.53;95156.63;4987043;28;20132;-72
2021/07/08 16:32:34;;;;;;;6.05;5.53;;;;;;;27.42;58.48;95149.72;5004318;28;20025;-74
2021/07/08 16:34:59;;;;;;;6.57;6.10;;;;;;;27.30;59.47;95152.66;4987540;28;20498;-72
2021/07/08 16:37:25;;;;;;;6.43;5.88;;;;;;;27.26;58.70;95161.47;4987173;28;20053;-72
2021/07/08 16:39:51;;;;;;;6.53;6.03;;;;;;;27.27;59.32;95161.19;5003213;28;20471;-73
2021/07/08 16:42:16;;;;;;;6.68;6.18;;;;;;;27.22;59.05;95161.22;4987560;28;20076;-73
2021/07/08 16:44:42;;;;;;;6.47;5.97;;;;;;;27.15;60.07;95166.00;4989992;28;20030;-73
2021/07/08 16:47:07;;;;;;;6.32;5.68;;;;;;;27.03;60.73;95165.50;4987125;28;20042;-72